createdAt,value
2023-07-04T00:01:13.671Z,1.50
2023-07-04T00:03:15.702Z,1.63
2023-07-04T00:05:17.940Z,1.90
2023-07-04T00:07:21.934Z,1.67
2023-07-04T00:09:23.982Z,2.17
2023-07-04T00:11:25.635Z,1.88
2023-07-04T00:13:28.457Z,1.75
2023-07-04T00:15:30.374Z,1.75
2023-07-04T00:17:32.497Z,1.75
2023-07-04T00:19:34.222Z,1.90
2023-07-04T00:21:37.096Z,1.80
2023-07-04T00:23:39.114Z,2.00
2023-07-04T00:25:41.330Z,2.30
2023-07-04T00:27:42.862Z,1.77
2023-07-04T00:29:44.435Z,1.77
2023-07-04T00:33:48.615Z,1.92
2023-07-04T00:35:51.009Z,1.90
2023-07-04T00:37:53.405Z,1.98
2023-07-04T00:39:57.417Z,2.22
2023-07-04T00:42:04.113Z,2.03
2023-07-04T00:44:11.650Z,1.95
2023-07-04T00:46:17.120Z,1.90
2023-07-04T00:48:18.767Z,1.95
2023-07-04T00:50:28.065Z,1.80
2023-07-04T00:52:34.797Z,1.67
2023-07-04T00:54:41.765Z,1.80
2023-07-04T00:56:44.283Z,2.22
2023-07-04T00:58:46.505Z,1.63
2023-07-04T01:00:48.992Z,1.80
2023-07-04T01:02:54.226Z,1.73
2023-07-04T01:04:57.544Z,1.92
2023-07-04T01:07:15.205Z,1.80
2023-07-04T01:09:19.776Z,1.58
2023-07-04T01:11:30.234Z,1.98
2023-07-04T01:13:38.234Z,1.83
2023-07-04T01:15:39.851Z,1.83
2023-07-04T01:17:44.791Z,1.60
2023-07-04T01:19:47.461Z,1.70
2023-07-04T01:21:53.791Z,1.65
2023-07-04T01:24:18.960Z,1.52
2023-07-04T01:26:31.399Z,2.10
2023-07-04T01:28:33.073Z,2.10
2023-07-04T01:30:40.682Z,1.60
2023-07-04T01:32:44.205Z,1.80
2023-07-04T01:34:47.018Z,1.95
2023-07-04T01:36:50.452Z,1.90
2023-07-04T01:38:52.868Z,1.98
2023-07-04T01:40:54.703Z,1.90
2023-07-04T01:42:56.704Z,2.10
2023-07-04T01:45:01.321Z,1.80
2023-07-04T01:47:03.644Z,1.90
2023-07-04T01:49:05.431Z,2.03
2023-07-04T01:51:09.056Z,1.55
2023-07-04T01:53:10.900Z,1.92
2023-07-04T01:55:14.644Z,2.20
2023-07-04T01:57:16.271Z,2.00
2023-07-04T01:59:17.805Z,1.88
2023-07-04T02:01:19.473Z,1.85
2023-07-04T02:03:21.292Z,1.85
2023-07-04T02:05:23.239Z,1.67
2023-07-04T02:07:24.785Z,2.05
2023-07-04T02:09:27.442Z,1.80
2023-07-04T02:11:29.008Z,1.58
2023-07-04T02:13:30.597Z,2.00
2023-07-04T02:15:33.682Z,1.90
2023-07-04T02:17:35.436Z,2.05
2023-07-04T02:19:37.433Z,1.70
2023-07-04T02:21:39.505Z,1.90
2023-07-04T02:23:41.227Z,1.90
2023-07-04T02:27:45.124Z,1.75
2023-07-04T02:29:50.060Z,1.83
2023-07-04T02:31:51.703Z,2.03
2023-07-04T02:33:53.606Z,1.88
2023-07-04T02:35:55.580Z,1.65
2023-07-04T02:37:58.343Z,2.20
2023-07-04T02:40:00.204Z,1.83
2023-07-04T02:42:03.205Z,2.30
2023-07-04T02:44:05.342Z,1.65
2023-07-04T02:46:08.820Z,1.92
2023-07-04T02:48:15.573Z,1.80
2023-07-04T02:50:18.599Z,2.22
2023-07-04T02:52:24.869Z,2.05
2023-07-04T02:54:26.510Z,1.80
2023-07-04T02:56:28.187Z,2.10
2023-07-04T02:58:29.820Z,2.05
2023-07-04T03:00:32.062Z,2.20
2023-07-04T03:02:33.768Z,2.20
2023-07-04T03:04:37.445Z,1.92
2023-07-04T03:06:39.077Z,2.08
2023-07-04T03:08:41.894Z,1.90
2023-07-04T03:10:47.636Z,2.20
2023-07-04T03:12:52.655Z,1.83
2023-07-04T03:14:54.327Z,1.95
2023-07-04T03:16:56.980Z,2.70
2023-07-04T03:18:59.498Z,2.20
2023-07-04T03:23:04.864Z,1.70
2023-07-04T03:25:07.785Z,2.10
2023-07-04T03:27:10.376Z,1.98
2023-07-04T03:29:12.478Z,2.15
2023-07-04T03:31:14.505Z,1.92
2023-07-04T03:33:16.384Z,2.33
2023-07-04T03:35:18.250Z,1.95
2023-07-04T03:37:19.803Z,1.95
2023-07-04T03:39:21.400Z,1.80
2023-07-04T03:41:24.410Z,2.40
2023-07-04T03:43:26.588Z,2.33
2023-07-04T03:45:28.238Z,1.85
2023-07-04T03:47:29.967Z,2.03
2023-07-04T03:49:31.628Z,2.30
2023-07-04T03:51:33.297Z,2.17
2023-07-04T03:53:38.431Z,1.95
2023-07-04T03:55:40.883Z,2.10
2023-07-04T03:57:42.639Z,2.13
2023-07-04T03:59:44.292Z,2.13
2023-07-04T04:01:46.386Z,2.28
2023-07-04T04:03:48.393Z,2.45
2023-07-04T04:05:50.435Z,2.00
2023-07-04T04:07:52.032Z,2.70
2023-07-04T04:09:53.715Z,2.53
2023-07-04T04:11:55.325Z,2.53
2023-07-04T04:13:57.080Z,2.15
2023-07-04T04:15:58.886Z,2.58
2023-07-04T04:18:00.922Z,2.58
2023-07-04T04:20:07.379Z,2.90
2023-07-04T04:22:09.080Z,2.35
2023-07-04T04:24:10.661Z,2.70
2023-07-04T04:26:15.769Z,2.25
2023-07-04T04:28:17.526Z,2.75
2023-07-04T04:30:19.188Z,2.47
2023-07-04T04:32:23.030Z,2.63
2023-07-04T04:34:25.050Z,2.80
2023-07-04T04:36:26.634Z,2.60
2023-07-04T04:38:28.188Z,2.30
2023-07-04T04:40:29.844Z,2.83
2023-07-04T04:42:35.696Z,2.80
2023-07-04T04:44:40.883Z,2.70
2023-07-04T04:46:45.883Z,3.00
2023-07-04T04:48:47.956Z,2.08
2023-07-04T04:50:49.568Z,2.70
2023-07-04T04:52:52.164Z,2.80
2023-07-04T04:54:53.704Z,2.70
2023-07-04T04:56:55.329Z,2.65
2023-07-04T04:58:57.191Z,2.58
2023-07-04T05:01:07.461Z,2.85
2023-07-04T05:03:08.993Z,2.60
2023-07-04T05:05:10.570Z,2.38
2023-07-04T05:07:13.950Z,2.63
2023-07-04T05:09:15.783Z,2.65
2023-07-04T05:11:18.042Z,3.10
2023-07-04T05:15:59.121Z,3.40
2023-07-04T05:18:00.787Z,2.78
2023-07-04T05:20:02.560Z,2.80
2023-07-04T05:24:06.982Z,2.47
2023-07-04T05:26:12.275Z,2.35
2023-07-04T05:28:13.788Z,2.38
2023-07-04T05:30:15.569Z,2.55
2023-07-04T05:32:17.140Z,2.55
2023-07-04T05:34:18.760Z,2.13
2023-07-04T05:36:25.449Z,2.47
2023-07-04T05:38:26.985Z,2.28
2023-07-04T05:40:29.139Z,2.70
2023-07-04T05:42:30.770Z,2.70
2023-07-04T05:44:32.514Z,2.63
2023-07-04T05:46:36.151Z,2.55
2023-07-04T05:48:38.745Z,2.83
2023-07-04T05:50:53.806Z,2.35
2023-07-04T05:52:55.486Z,2.78
2023-07-04T05:54:57.226Z,2.20
2023-07-04T05:56:58.792Z,2.45
2023-07-04T05:59:02.738Z,2.58
2023-07-04T06:01:10.352Z,2.33
2023-07-04T06:03:12.386Z,2.30
2023-07-04T06:05:14.050Z,2.40
2023-07-04T06:07:15.592Z,2.88
2023-07-04T06:09:18.120Z,3.00
2023-07-04T06:11:21.215Z,2.72
2023-07-04T06:13:22.842Z,2.63
2023-07-04T06:15:24.603Z,2.15
2023-07-04T06:19:28.370Z,2.90
2023-07-04T06:21:42.390Z,2.60
2023-07-04T06:23:46.488Z,2.38
2023-07-04T06:25:56.917Z,2.95
2023-07-04T06:27:58.553Z,2.70
2023-07-04T06:30:00.168Z,2.58
2023-07-04T06:32:01.804Z,3.03
2023-07-04T06:34:03.378Z,2.60
2023-07-04T06:36:09.614Z,2.55
2023-07-04T06:38:11.200Z,2.47
2023-07-04T06:40:12.799Z,2.88
2023-07-04T06:42:14.652Z,2.60
2023-07-04T06:44:20.683Z,2.78
2023-07-04T06:46:23.230Z,2.83
2023-07-04T06:48:26.255Z,2.78
2023-07-04T06:50:30.362Z,2.55
2023-07-04T06:52:33.920Z,2.20
2023-07-04T06:54:35.796Z,2.60
2023-07-04T06:56:39.169Z,2.10
2023-07-04T06:58:43.832Z,2.15
2023-07-04T07:00:45.566Z,2.05
2023-07-04T07:02:52.051Z,2.00
2023-07-04T07:04:53.881Z,2.20
2023-07-04T07:06:55.536Z,2.60
2023-07-04T07:08:57.678Z,2.40
2023-07-04T07:13:05.118Z,2.55
2023-07-04T07:15:07.221Z,2.08
2023-07-04T07:17:09.446Z,2.25
2023-07-04T07:19:13.850Z,2.53
2023-07-04T07:21:21.244Z,2.80
2023-07-04T07:23:23.555Z,3.08
2023-07-04T07:25:25.192Z,2.50
2023-07-04T07:27:26.871Z,2.53
2023-07-04T07:29:28.796Z,2.50
2023-07-04T07:31:34.350Z,2.53
2023-07-04T07:33:39.330Z,3.15
2023-07-04T07:35:40.896Z,2.80
2023-07-04T07:37:42.680Z,2.80
2023-07-04T07:39:45.190Z,3.10
2023-07-04T07:41:48.290Z,2.80
2023-07-04T07:43:49.921Z,2.50
2023-07-04T07:45:51.523Z,2.70
2023-07-04T07:47:53.231Z,2.60
2023-07-04T07:49:55.467Z,2.75
2023-07-04T07:51:57.950Z,2.60
2023-07-04T07:54:01.526Z,2.38
2023-07-04T07:56:07.391Z,2.28
2023-07-04T07:58:09.850Z,2.58
2023-07-04T08:00:12.004Z,2.50
2023-07-04T08:02:16.098Z,2.85
2023-07-04T08:04:17.837Z,2.50
2023-07-04T08:06:21.243Z,2.10
2023-07-04T08:08:22.773Z,2.60
2023-07-04T08:10:25.885Z,2.70
2023-07-04T08:12:27.594Z,2.72
2023-07-04T08:14:29.225Z,2.45
2023-07-04T08:16:41.397Z,2.67
2023-07-04T08:18:45.516Z,2.50
2023-07-04T08:21:02.157Z,2.25
2023-07-04T08:23:05.007Z,2.30
2023-07-04T08:25:06.814Z,2.40
2023-07-04T08:27:08.516Z,2.55
2023-07-04T08:29:10.386Z,2.35
2023-07-04T08:31:12.904Z,2.35
2023-07-04T08:33:17.940Z,2.53
2023-07-04T08:35:19.556Z,3.20
2023-07-04T08:37:21.152Z,2.92
2023-07-04T08:39:22.750Z,2.92
2023-07-04T08:41:44.066Z,2.78
2023-07-04T08:43:57.227Z,2.47
2023-07-04T08:45:59.269Z,2.60
2023-07-04T08:50:14.418Z,2.30
2023-07-04T08:52:18.935Z,2.60
2023-07-04T08:54:21.944Z,2.58
2023-07-04T08:56:34.591Z,2.45
2023-07-04T08:59:06.458Z,2.58
2023-07-04T09:01:18.846Z,2.45
2023-07-04T09:03:40.272Z,2.90
2023-07-04T09:05:52.127Z,2.60
2023-07-04T09:08:18.297Z,2.63
2023-07-04T09:10:33.146Z,2.90
2023-07-04T09:12:37.152Z,3.00
2023-07-04T09:14:52.453Z,3.20
2023-07-04T09:16:55.186Z,2.97
2023-07-04T09:19:03.016Z,3.00
2023-07-04T09:21:12.213Z,2.67
2023-07-04T09:23:22.128Z,3.30
2023-07-04T09:25:24.105Z,2.80
2023-07-04T09:27:26.498Z,3.00
2023-07-04T09:29:28.453Z,3.45
2023-07-04T09:31:33.299Z,2.80
2023-07-04T09:33:37.024Z,2.60
2023-07-04T09:35:39.079Z,3.15
2023-07-04T09:40:02.298Z,3.40
2023-07-04T09:42:18.398Z,3.40
2023-07-04T09:44:32.269Z,3.60
2023-07-04T09:46:34.472Z,3.42
2023-07-04T09:48:36.603Z,3.17
2023-07-04T09:50:39.397Z,3.55
2023-07-04T09:52:42.259Z,2.95
2023-07-04T09:54:44.750Z,3.03
2023-07-04T09:56:46.411Z,2.83
2023-07-04T09:58:48.004Z,2.97
2023-07-04T10:01:07.738Z,3.45
2023-07-04T10:03:10.561Z,3.45
2023-07-04T10:05:30.164Z,3.50
2023-07-04T10:07:31.997Z,3.63
2023-07-04T10:09:34.844Z,3.58
2023-07-04T10:11:41.262Z,3.88
2023-07-04T10:13:42.928Z,3.80
2023-07-04T10:15:46.482Z,3.42
2023-07-04T10:17:48.151Z,3.80
2023-07-04T10:19:52.519Z,3.50
2023-07-04T10:21:54.510Z,3.30
2023-07-04T10:26:00.454Z,3.80
2023-07-04T10:28:15.429Z,3.90
2023-07-04T10:30:21.848Z,4.15
2023-07-04T10:32:25.582Z,4.60
2023-07-04T10:34:28.527Z,4.50
2023-07-04T10:36:34.215Z,4.80
2023-07-04T10:38:48.462Z,4.10
2023-07-04T10:40:51.442Z,4.05
2023-07-04T10:43:09.985Z,4.47
2023-07-04T10:45:15.518Z,4.53
2023-07-04T10:47:26.890Z,4.30
2023-07-04T10:49:33.024Z,4.97
2023-07-04T10:51:39.875Z,4.97
2023-07-04T10:53:41.488Z,4.20
2023-07-04T10:55:51.722Z,4.80
2023-07-04T10:58:00.612Z,5.85
2023-07-04T11:00:15.767Z,5.15
2023-07-04T11:02:26.639Z,5.90
2023-07-04T11:04:33.734Z,6.60
2023-07-04T11:06:41.202Z,6.78
2023-07-04T11:08:43.226Z,6.55
2023-07-04T11:10:50.470Z,6.10
2023-07-04T11:12:58.091Z,5.70
2023-07-04T11:15:04.618Z,5.03
2023-07-04T11:17:12.016Z,5.13
2023-07-04T11:19:23.839Z,5.63
2023-07-04T11:21:25.553Z,5.65
2023-07-04T11:23:50.546Z,5.55
2023-07-04T11:26:05.623Z,6.07
2023-07-04T11:28:33.410Z,5.75
2023-07-04T11:30:40.503Z,5.93
2023-07-04T11:32:43.644Z,5.68
2023-07-04T11:34:51.261Z,6.18
2023-07-04T11:36:57.473Z,6.10
2023-07-04T11:39:05.144Z,5.65
2023-07-04T11:41:10.293Z,6.43
2023-07-04T11:43:29.842Z,7.03
2023-07-04T11:45:34.084Z,6.78
2023-07-04T11:48:04.493Z,7.43
2023-07-04T11:50:14.161Z,6.32
2023-07-04T11:52:27.364Z,5.43
2023-07-04T11:54:31.210Z,6.53
2023-07-04T11:56:32.889Z,5.72
2023-07-04T12:00:36.532Z,6.45
2023-07-04T12:04:41.396Z,7.68
2023-07-04T12:06:56.795Z,7.72
2023-07-04T12:08:59.752Z,7.65
2023-07-04T12:11:24.215Z,7.80
2023-07-04T12:13:28.421Z,7.68
2023-07-04T12:15:33.120Z,7.72
2023-07-04T12:17:42.597Z,7.38
2023-07-04T12:19:44.385Z,7.20
2023-07-04T12:21:50.472Z,8.13
2023-07-04T12:23:52.058Z,7.82
2023-07-04T12:25:56.499Z,7.75
2023-07-04T12:27:59.585Z,7.40
2023-07-04T12:30:04.312Z,7.38
2023-07-04T12:32:15.253Z,6.80
2023-07-04T12:34:25.504Z,7.40
2023-07-04T12:36:34.949Z,7.03
2023-07-04T12:38:56.483Z,6.93
2023-07-04T12:40:59.053Z,5.97
2023-07-04T12:45:11.314Z,6.35
2023-07-04T12:47:21.158Z,6.30
2023-07-04T12:51:31.360Z,6.90
2023-07-04T12:53:34.413Z,6.75
2023-07-04T12:55:38.584Z,6.70
2023-07-04T12:57:40.482Z,6.90
2023-07-04T12:59:43.406Z,6.45
2023-07-04T13:01:45.056Z,6.68
2023-07-04T13:03:46.963Z,6.18
2023-07-04T13:05:52.204Z,6.25
2023-07-04T13:07:54.115Z,6.03
2023-07-04T13:09:58.009Z,5.95
2023-07-04T13:12:00.764Z,5.85
2023-07-04T13:14:08.236Z,6.13
2023-07-04T13:16:29.487Z,6.05
2023-07-04T13:18:34.464Z,6.47
2023-07-04T13:20:41.365Z,6.53
2023-07-04T13:23:45.611Z,5.57
2023-07-04T13:27:26.058Z,5.90
2023-07-04T13:33:38.703Z,5.78
2023-07-04T13:39:52.923Z,6.70
2023-07-04T13:41:57.543Z,5.82
2023-07-04T13:46:05.633Z,5.47
2023-07-04T13:48:07.976Z,6.20
2023-07-04T13:50:15.149Z,5.70
2023-07-04T13:52:16.819Z,5.72
2023-07-04T13:54:18.377Z,5.45
2023-07-04T13:56:21.034Z,5.70
2023-07-04T13:58:22.678Z,5.90
2023-07-04T14:00:33.999Z,6.30
2023-07-04T14:06:53.232Z,5.70
2023-07-04T14:08:55.123Z,5.68
2023-07-04T14:11:06.320Z,5.95
2023-07-04T14:13:08.653Z,5.93
2023-07-04T14:21:25.104Z,5.75
2023-07-04T14:23:26.816Z,6.05
2023-07-04T14:25:28.375Z,5.93
2023-07-04T14:27:38.624Z,6.03
2023-07-04T14:29:41.431Z,6.00
2023-07-04T14:31:43.243Z,5.78
2023-07-04T14:33:44.990Z,5.32
2023-07-04T14:35:47.537Z,5.90
2023-07-04T14:37:51.492Z,6.10
2023-07-04T14:39:55.160Z,5.78
2023-07-04T14:44:04.628Z,5.82
2023-07-04T14:46:08.079Z,5.20
2023-07-04T14:48:10.163Z,5.28
2023-07-04T14:50:12.704Z,5.90
2023-07-04T14:52:14.567Z,5.53
2023-07-04T14:54:16.767Z,5.18
2023-07-04T14:56:18.388Z,5.57
2023-07-04T14:58:20.401Z,6.10
2023-07-04T15:00:23.369Z,6.60
2023-07-04T15:02:25.073Z,6.30
2023-07-04T15:04:27.932Z,6.72
2023-07-04T15:06:31.273Z,6.70
2023-07-04T15:08:33.861Z,6.50
2023-07-04T15:10:35.549Z,7.13
2023-07-04T15:12:37.259Z,6.60
2023-07-04T15:16:41.315Z,6.40
2023-07-04T15:18:42.981Z,6.95
2023-07-04T15:20:44.628Z,6.68
2023-07-04T15:22:46.523Z,6.85
2023-07-04T15:24:48.144Z,7.38
2023-07-04T15:26:49.774Z,6.57
2023-07-04T15:28:52.487Z,7.65
2023-07-04T15:30:56.405Z,7.32
2023-07-04T15:32:58.549Z,7.15
2023-07-04T15:35:00.194Z,6.25
2023-07-04T15:37:11.082Z,6.38
2023-07-04T15:39:13.255Z,6.35
2023-07-04T15:41:14.918Z,6.05
2023-07-04T15:45:20.638Z,6.57
2023-07-04T15:47:22.257Z,6.15
2023-07-04T15:49:23.865Z,6.65
2023-07-04T15:51:25.921Z,6.65
2023-07-04T15:53:28.898Z,6.25
2023-07-04T15:55:31.965Z,6.25
2023-07-04T15:57:33.538Z,6.38
2023-07-04T15:59:35.332Z,6.43
2023-07-04T16:03:39.586Z,6.00
2023-07-04T16:05:45.266Z,5.70
2023-07-04T16:07:47.321Z,5.75
2023-07-04T16:09:50.513Z,6.07
2023-07-04T16:11:53.367Z,5.90
2023-07-04T16:13:55.097Z,5.82
2023-07-04T16:15:57.473Z,6.43
2023-07-04T16:18:00.527Z,5.40
2023-07-04T16:20:02.197Z,6.55
2023-07-04T16:22:04.114Z,6.35
2023-07-04T16:26:09.173Z,5.65
2023-07-04T16:28:12.370Z,6.32
2023-07-04T16:30:14.819Z,6.18
2023-07-04T16:32:16.370Z,5.43
2023-07-04T16:34:18.150Z,5.63
2023-07-04T16:38:24.305Z,5.88
2023-07-04T16:40:26.349Z,6.28
2023-07-04T16:42:28.001Z,6.63
2023-07-04T16:44:31.890Z,5.95
2023-07-04T16:46:33.586Z,6.30
2023-07-04T16:48:35.884Z,5.70
2023-07-04T16:50:40.668Z,5.80
2023-07-04T16:52:42.227Z,5.97
2023-07-04T16:54:43.884Z,6.03
2023-07-04T16:56:45.496Z,5.93
2023-07-04T16:58:47.640Z,7.28
2023-07-04T17:00:49.190Z,7.18
2023-07-04T17:02:51.663Z,6.85
2023-07-04T17:04:53.309Z,6.88
2023-07-04T17:06:55.452Z,6.70
2023-07-04T17:08:57.816Z,7.05
2023-07-04T17:10:59.514Z,6.80
2023-07-04T17:13:02.193Z,6.63
2023-07-04T17:15:04.861Z,6.20
2023-07-04T17:17:06.716Z,7.45
2023-07-04T17:19:08.240Z,5.93
2023-07-04T17:21:10.519Z,6.68
2023-07-04T17:25:14.974Z,6.10
2023-07-04T17:27:16.970Z,6.55
2023-07-04T17:31:20.671Z,6.65
2023-07-04T17:33:22.326Z,6.40
2023-07-04T17:35:24.029Z,5.82
2023-07-04T17:37:26.438Z,5.75
2023-07-04T17:41:29.981Z,5.72
2023-07-04T17:43:31.537Z,5.72
2023-07-04T17:45:33.105Z,5.93
2023-07-04T17:47:34.766Z,6.25
2023-07-04T17:49:36.356Z,5.75
2023-07-04T17:51:38.093Z,5.85
2023-07-04T17:53:39.701Z,6.93
2023-07-04T17:55:41.821Z,6.28
2023-07-04T17:57:43.517Z,5.68
2023-07-04T17:59:47.259Z,6.07
2023-07-04T18:01:48.880Z,5.82
2023-07-04T18:03:52.233Z,5.78
2023-07-04T18:05:58.330Z,6.25
2023-07-04T18:07:59.867Z,6.00
2023-07-04T18:10:01.942Z,6.32
2023-07-04T18:12:05.809Z,5.70
2023-07-04T18:14:07.661Z,6.07
2023-07-04T18:16:10.299Z,5.68
2023-07-04T18:18:11.951Z,6.38
2023-07-04T18:20:13.579Z,5.75
2023-07-04T18:22:15.090Z,6.43
2023-07-04T18:24:16.630Z,5.63
2023-07-04T18:26:19.924Z,5.68
2023-07-04T18:28:21.777Z,5.70
2023-07-04T18:32:24.824Z,5.47
2023-07-04T18:34:27.362Z,5.28
2023-07-04T18:36:31.768Z,5.72
2023-07-04T18:38:33.407Z,5.80
2023-07-04T18:40:40.266Z,5.70
2023-07-04T18:42:41.854Z,5.25
2023-07-04T18:44:43.438Z,5.30
2023-07-04T18:46:45.665Z,5.15
2023-07-04T18:48:47.534Z,4.50
2023-07-04T18:50:49.224Z,4.50
2023-07-04T18:52:51.072Z,4.95
2023-07-04T18:54:52.657Z,5.13
2023-07-04T18:58:57.885Z,4.80
2023-07-04T19:01:11.183Z,4.63
2023-07-04T19:03:13.757Z,4.78
2023-07-04T19:05:16.471Z,5.47
2023-07-04T19:07:18.152Z,5.05
2023-07-04T19:09:19.986Z,4.95
2023-07-04T19:11:25.249Z,5.40
2023-07-04T19:13:30.822Z,4.35
2023-07-04T19:15:33.404Z,4.80
2023-07-04T19:17:35.936Z,5.13
2023-07-04T19:19:40.673Z,5.15
2023-07-04T19:21:44.562Z,4.72
2023-07-04T19:23:46.358Z,5.05
2023-07-04T19:25:48.483Z,5.00
2023-07-04T19:27:50.059Z,5.25
2023-07-04T19:29:52.702Z,4.40
2023-07-04T19:31:55.857Z,4.60
2023-07-04T19:33:58.579Z,4.43
2023-07-04T19:36:00.953Z,4.45
2023-07-04T19:38:02.836Z,4.70
2023-07-04T19:40:04.939Z,4.70
2023-07-04T19:42:07.083Z,4.63
2023-07-04T19:46:10.322Z,4.40
2023-07-04T19:48:12.034Z,4.43
2023-07-04T19:50:15.085Z,4.65
2023-07-04T19:52:16.717Z,4.80
2023-07-04T19:54:19.009Z,4.63
2023-07-04T19:56:27.794Z,4.88
2023-07-04T19:58:29.551Z,4.43
2023-07-04T20:00:31.278Z,4.72
2023-07-04T20:02:33.799Z,4.55
2023-07-04T20:04:35.392Z,4.70
2023-07-04T20:06:39.226Z,4.68
2023-07-04T20:08:42.564Z,4.60
2023-07-04T20:10:44.117Z,4.38
2023-07-04T20:12:46.152Z,4.80
2023-07-04T20:16:51.092Z,4.70
2023-07-04T20:18:53.298Z,4.07
2023-07-04T20:20:58.744Z,4.22
2023-07-04T20:23:00.480Z,4.95
2023-07-04T20:25:02.135Z,5.07
2023-07-04T20:27:04.282Z,4.78
2023-07-04T20:31:07.434Z,4.15
2023-07-04T20:33:09.600Z,5.05
2023-07-04T20:35:11.484Z,5.22
2023-07-04T20:37:13.065Z,4.30
2023-07-04T20:39:14.670Z,4.03
2023-07-04T20:41:16.970Z,4.85
2023-07-04T20:43:19.819Z,4.57
2023-07-04T20:45:22.041Z,4.88
2023-07-04T20:47:23.997Z,4.82
2023-07-04T20:49:25.607Z,4.88
2023-07-04T20:51:27.138Z,4.32
2023-07-04T20:53:28.880Z,4.93
2023-07-04T20:55:30.877Z,4.47
2023-07-04T20:59:35.100Z,4.60
2023-07-04T21:01:36.803Z,4.95
2023-07-04T21:03:39.022Z,4.60
2023-07-04T21:05:40.924Z,4.53
2023-07-04T21:09:46.320Z,4.35
2023-07-04T21:11:49.391Z,4.78
2023-07-04T21:13:50.972Z,4.47
2023-07-04T21:15:53.017Z,5.15
2023-07-04T21:17:56.382Z,4.65
2023-07-04T21:19:59.549Z,4.70
2023-07-04T21:22:01.062Z,4.78
2023-07-04T21:24:02.746Z,4.38
2023-07-04T21:26:08.721Z,4.70
2023-07-04T21:28:10.460Z,4.63
2023-07-04T21:30:12.484Z,4.55
2023-07-04T21:32:14.079Z,4.35
2023-07-04T21:34:18.604Z,4.47
2023-07-04T21:36:20.130Z,4.95
2023-07-04T21:38:21.763Z,4.38
2023-07-04T21:40:23.433Z,4.35
2023-07-04T21:42:25.072Z,4.65
2023-07-04T21:44:26.738Z,4.70
2023-07-04T21:46:28.318Z,4.78
2023-07-04T21:48:31.105Z,4.78
2023-07-04T21:50:33.177Z,4.65
2023-07-04T21:52:35.370Z,4.43
2023-07-04T21:56:38.569Z,4.00
2023-07-04T21:58:40.125Z,4.15
2023-07-04T22:00:41.823Z,4.50
2023-07-04T22:02:43.602Z,3.88
2023-07-04T22:04:45.676Z,4.10
2023-07-04T22:06:47.475Z,4.30
2023-07-04T22:08:49.553Z,4.32
2023-07-04T22:10:57.301Z,4.20
2023-07-04T22:12:58.993Z,4.72
2023-07-04T22:15:00.799Z,4.25
2023-07-04T22:17:02.425Z,4.00
2023-07-04T22:19:04.032Z,4.80
2023-07-04T22:21:08.872Z,4.35
2023-07-04T22:23:10.984Z,4.13
2023-07-04T22:27:14.266Z,4.53
2023-07-04T22:29:15.914Z,4.25
2023-07-04T22:31:18.822Z,4.10
2023-07-04T22:33:20.758Z,4.22
2023-07-04T22:35:22.355Z,4.32
2023-07-04T22:37:24.206Z,4.45
2023-07-04T22:39:27.932Z,3.92
2023-07-04T22:41:30.087Z,4.25
2023-07-04T22:45:33.752Z,3.53
2023-07-04T22:47:35.483Z,3.55
2023-07-04T22:49:37.196Z,3.58
2023-07-04T22:51:39.392Z,3.60
2023-07-04T22:53:41.105Z,3.40
2023-07-04T22:55:45.779Z,3.25
2023-07-04T22:57:47.321Z,3.28
2023-07-04T22:59:48.912Z,3.35
2023-07-04T23:01:50.529Z,3.17
2023-07-04T23:03:52.232Z,3.65
2023-07-04T23:05:54.073Z,2.97
2023-07-04T23:07:55.869Z,3.35
2023-07-04T23:09:57.449Z,2.55
2023-07-04T23:12:04.370Z,2.58
2023-07-04T23:14:06.712Z,3.08
2023-07-04T23:16:10.156Z,3.00
2023-07-04T23:18:12.174Z,3.00
2023-07-04T23:20:14.411Z,2.67
2023-07-04T23:22:16.477Z,2.90
2023-07-04T23:24:18.052Z,3.08
2023-07-04T23:26:23.443Z,2.67
2023-07-04T23:28:25.062Z,2.67
2023-07-04T23:30:26.673Z,2.55
2023-07-04T23:32:28.631Z,2.85
2023-07-04T23:34:30.281Z,2.47
2023-07-04T23:36:32.014Z,2.30
2023-07-04T23:38:33.935Z,2.28
2023-07-04T23:40:35.570Z,1.85
2023-07-04T23:42:37.194Z,2.30
2023-07-04T23:44:38.799Z,2.08
2023-07-04T23:46:40.634Z,2.53
2023-07-04T23:48:42.812Z,2.38
2023-07-04T23:52:46.157Z,1.90
2023-07-04T23:54:47.777Z,2.05
2023-07-04T23:56:49.398Z,2.40
2023-07-04T23:58:50.988Z,1.92
